Time;durP1;ratioP1;P1;durP2;ratioP2;P2;SDS_P1;SDS_P2;PMS_P1;PMS_P2;Temp;Humidity;BMP_temperature;BMP_pressure;BME280_temperature;BME280_humidity;BME280_pressure;Samples;Min_cycle;Max_cycle;Signal;HPM_P1;HPM_P2
2023/08/27 00:01:27;;;;;;;7.30;4.90;;;12.90;99.90;;;;;;5125526;27;20079;-61
2023/08/27 00:03:53;;;;;;;5.13;4.60;;;12.80;99.90;;;;;;5131266;27;20101;-60
2023/08/27 00:06:19;;;;;;;6.35;5.75;;;12.80;99.90;;;;;;5125694;27;20437;-60
2023/08/27 00:08:44;;;;;;;7.07;6.45;;;12.90;99.90;;;;;;5113704;27;20054;-64
2023/08/27 00:11:10;;;;;;;6.88;5.22;;;12.90;99.90;;;;;;5109269;27;20504;-62
2023/08/27 00:13:36;;;;;;;7.45;5.95;;;12.90;99.90;;;;;;5128349;27;20120;-58
2023/08/27 00:16:06;;;;;;;6.93;6.22;;;12.90;99.90;;;;;;5129580;27;20062;-61
2023/08/27 00:18:32;;;;;;;8.02;6.18;;;12.90;99.90;;;;;;5115960;27;20064;-60
2023/08/27 00:20:58;;;;;;;9.07;6.78;;;12.90;99.90;;;;;;5130432;27;20821;-60
2023/08/27 00:23:24;;;;;;;8.90;5.80;;;12.90;99.90;;;;;;5125343;27;20055;-59
2023/08/27 00:25:50;;;;;;;7.85;5.22;;;12.80;99.90;;;;;;5112807;27;20722;-59
2023/08/27 00:28:16;;;;;;;8.75;5.35;;;12.80;99.90;;;;;;5108871;27;20055;-60
2023/08/27 00:30:42;;;;;;;6.60;6.00;;;12.70;99.90;;;;;;5128841;27;20051;-59
2023/08/27 00:33:08;;;;;;;6.65;5.97;;;12.70;99.90;;;;;;5134555;27;20070;-57
2023/08/27 00:35:34;;;;;;;7.15;5.60;;;12.70;99.90;;;;;;5124738;27;20767;-58
2023/08/27 00:37:59;;;;;;;8.52;5.25;;;12.70;99.90;;;;;;5120463;27;20112;-58
2023/08/27 00:40:28;;;;;;;7.05;6.38;;;12.70;99.90;;;;;;5124107;27;20264;-58
2023/08/27 00:42:57;;;;;;;8.32;6.50;;;12.70;99.90;;;;;;5112244;27;20080;-60
2023/08/27 00:45:24;;;;;;;7.45;5.68;;;12.70;99.90;;;;;;5128406;27;20073;-62
2023/08/27 00:47:49;;;;;;;8.15;6.47;;;12.80;99.90;;;;;;5125120;27;20138;-60
2023/08/27 00:50:15;;;;;;;6.45;5.85;;;12.70;99.90;;;;;;5130394;27;20149;-58
2023/08/27 00:52:42;;;;;;;8.35;6.47;;;12.80;99.90;;;;;;5127360;27;20051;-60
2023/08/27 00:55:08;;;;;;;7.93;6.43;;;12.70;99.90;;;;;;5129089;27;20059;-60
2023/08/27 00:57:37;;;;;;;7.28;6.57;;;12.70;99.90;;;;;;5128564;27;20070;-60
2023/08/27 01:00:09;;;;;;;6.43;5.80;;;12.70;99.90;;;;;;5127229;27;20055;-60
2023/08/27 01:02:35;;;;;;;5.90;5.35;;;12.70;99.90;;;;;;5100186;27;20055;-58
2023/08/27 01:05:01;;;;;;;8.18;5.93;;;12.70;99.90;;;;;;5108715;27;20059;-61
2023/08/27 01:07:46;;;;;;;6.50;5.90;;;12.70;99.90;;;;;;5130882;27;20058;-63
2023/08/27 01:10:36;;;;;;;6.82;6.18;;;12.70;99.90;;;;;;5124801;27;20058;-61
2023/08/27 01:13:07;;;;;;;6.10;5.50;;;12.70;99.90;;;;;;5129369;27;20083;-58
2023/08/27 01:15:33;;;;;;;6.95;6.35;;;12.70;99.90;;;;;;5073480;27;1095509;-57
2023/08/27 01:18:00;;;;;;;6.78;5.25;;;12.70;99.90;;;;;;5122861;27;20055;-58
2023/08/27 01:20:26;;;;;;;7.82;5.72;;;12.70;99.90;;;;;;5124824;27;20123;-58
2023/08/27 01:22:52;;;;;;;6.55;5.95;;;12.70;99.90;;;;;;5128239;27;20066;-58
2023/08/27 01:25:22;;;;;;;6.45;5.85;;;12.60;99.90;;;;;;5127793;27;20186;-58
2023/08/27 01:27:58;;;;;;;6.95;5.30;;;12.70;99.90;;;;;;5124746;27;20055;-58
2023/08/27 01:30:33;;;;;;;7.20;6.50;;;12.70;99.90;;;;;;5128186;27;20063;-59
2023/08/27 01:33:06;;;;;;;6.30;5.70;;;12.60;99.90;;;;;;5107363;27;20059;-58
2023/08/27 01:35:33;;;;;;;7.50;6.80;;;12.60;99.90;;;;;;5123624;27;20050;-58
2023/08/27 01:37:59;;;;;;;7.20;6.50;;;12.70;99.90;;;;;;5133774;27;20126;-58
2023/08/27 01:40:27;;;;;;;8.27;6.55;;;12.70;99.90;;;;;;5125000;27;20064;-59
2023/08/27 01:42:53;;;;;;;10.13;6.78;;;12.70;99.90;;;;;;5128226;27;20055;-57
2023/08/27 01:45:19;;;;;;;7.07;6.38;;;12.70;99.90;;;;;;5127025;27;20050;-57
2023/08/27 01:47:44;;;;;;;7.47;5.72;;;12.70;99.90;;;;;;5130155;27;20100;-57
2023/08/27 01:50:10;;;;;;;8.85;5.97;;;12.80;99.90;;;;;;5124652;27;20066;-57
2023/08/27 01:52:36;;;;;;;9.48;6.18;;;12.80;99.90;;;;;;5129136;27;20058;-58
2023/08/27 01:55:07;;;;;;;8.60;5.90;;;12.90;99.90;;;;;;5131045;27;20065;-59
2023/08/27 01:57:33;;;;;;;8.70;6.53;;;12.80;99.90;;;;;;5116270;27;20142;-58
2023/08/27 01:59:59;;;;;;;6.55;5.72;;;12.80;99.90;;;;;;5130152;27;20146;-60
2023/08/27 02:02:24;;;;;;;7.00;6.32;;;12.80;99.90;;;;;;5124650;27;20059;-57
2023/08/27 02:04:50;;;;;;;7.72;6.65;;;12.90;99.90;;;;;;5130121;27;20464;-58
2023/08/27 02:07:17;;;;;;;6.82;5.97;;;12.80;99.90;;;;;;5107680;27;20051;-60
2023/08/27 02:09:43;;;;;;;6.70;6.10;;;12.90;99.90;;;;;;5112452;27;20667;-58
2023/08/27 02:12:09;;;;;;;6.35;5.75;;;12.90;99.90;;;;;;5125012;27;20058;-57
2023/08/27 02:14:36;;;;;;;8.25;6.60;;;12.90;99.90;;;;;;5128017;27;20107;-58
2023/08/27 02:19:31;;;;;;;7.07;5.50;;;12.90;99.90;;;;;;5109134;27;20942;-58
2023/08/27 02:21:57;;;;;;;6.43;5.82;;;13.00;99.90;;;;;;5129687;27;20137;-58
2023/08/27 02:24:23;;;;;;;10.23;7.65;;;13.00;99.90;;;;;;5124160;27;20063;-58
2023/08/27 02:26:48;;;;;;;7.22;6.03;;;13.00;99.90;;;;;;5126023;27;20047;-58
2023/08/27 02:29:14;;;;;;;6.80;6.10;;;12.90;99.90;;;;;;5115839;27;20055;-58
2023/08/27 02:31:39;;;;;;;6.82;6.13;;;12.90;99.90;;;;;;5129185;27;20055;-58
2023/08/27 02:34:07;;;;;;;8.07;6.50;;;12.80;99.90;;;;;;5127757;27;20094;-58
2023/08/27 02:36:33;;;;;;;6.80;6.10;;;12.90;99.90;;;;;;5110876;27;20058;-58
2023/08/27 02:38:58;;;;;;;6.82;6.22;;;12.90;99.90;;;;;;5128743;27;20055;-58
2023/08/27 02:41:24;;;;;;;6.70;6.00;;;12.70;99.90;;;;;;5114061;27;20075;-58
2023/08/27 02:43:50;;;;;;;6.95;5.82;;;12.80;99.90;;;;;;5128786;27;20475;-58
2023/08/27 02:46:15;;;;;;;7.28;6.00;;;12.80;99.90;;;;;;5123206;27;20051;-57
2023/08/27 02:48:41;;;;;;;10.27;6.85;;;12.70;99.90;;;;;;5129111;27;20050;-57
2023/08/27 02:51:06;;;;;;;6.55;6.03;;;12.60;99.90;;;;;;5124304;27;20591;-57
2023/08/27 02:53:32;;;;;;;8.27;5.72;;;12.70;99.90;;;;;;5080271;27;20442;-57
2023/08/27 02:55:58;;;;;;;6.43;5.85;;;12.70;99.90;;;;;;5126907;27;20409;-58
2023/08/27 02:58:23;;;;;;;6.78;6.13;;;12.70;99.90;;;;;;5103225;27;20059;-58
2023/08/27 03:00:49;;;;;;;6.95;5.65;;;12.70;99.90;;;;;;5133957;27;20084;-57
2023/08/27 03:03:15;;;;;;;6.35;5.82;;;12.60;99.90;;;;;;5124226;27;20404;-58
2023/08/27 03:05:41;;;;;;;5.90;5.35;;;12.50;99.90;;;;;;5124893;27;20442;-58
2023/08/27 03:08:06;;;;;;;7.95;6.18;;;12.50;99.90;;;;;;5126704;27;20131;-58
2023/08/27 03:10:32;;;;;;;10.00;6.00;;;12.60;99.90;;;;;;5123820;27;20108;-58
2023/08/27 03:12:58;;;;;;;7.50;6.43;;;12.50;99.90;;;;;;5125833;27;20075;-58
2023/08/27 03:15:23;;;;;;;7.22;6.55;;;12.60;99.90;;;;;;5124825;27;20063;-58
2023/08/27 03:17:49;;;;;;;8.70;6.75;;;12.50;99.90;;;;;;5130777;27;20043;-58
2023/08/27 03:20:15;;;;;;;7.10;6.32;;;12.50;99.90;;;;;;5123726;27;20514;-61
2023/08/27 03:22:40;;;;;;;7.35;6.63;;;12.50;99.90;;;;;;5106908;27;20472;-62
2023/08/27 03:25:06;;;;;;;7.57;6.85;;;12.50;99.90;;;;;;5126153;27;20069;-59
2023/08/27 03:27:35;;;;;;;7.40;5.80;;;12.50;99.90;;;;;;5115003;27;20711;-64
2023/08/27 03:32:27;;;;;;;9.20;7.00;;;12.40;99.90;;;;;;5119046;27;20098;-63
2023/08/27 03:34:53;;;;;;;7.90;7.10;;;12.40;99.90;;;;;;5115166;27;20489;-63
2023/08/27 03:37:19;;;;;;;8.30;7.50;;;12.40;99.90;;;;;;5130977;27;20081;-65
2023/08/27 03:39:44;;;;;;;8.27;6.32;;;12.40;99.90;;;;;;5126346;27;20092;-63
2023/08/27 03:42:10;;;;;;;7.85;6.97;;;12.40;99.90;;;;;;5117441;27;20063;-57
2023/08/27 03:44:36;;;;;;;7.50;5.95;;;12.40;99.90;;;;;;5123085;27;20054;-57
2023/08/27 03:47:06;;;;;;;10.27;7.93;;;12.40;99.90;;;;;;5128283;27;20476;-59
2023/08/27 03:49:32;;;;;;;8.80;7.05;;;12.40;99.90;;;;;;5098554;28;20059;-59
2023/08/27 03:51:57;;;;;;;8.40;7.50;;;12.40;99.90;;;;;;5122473;27;20055;-59
2023/08/27 03:54:23;;;;;;;7.68;6.88;;;12.40;99.90;;;;;;5122519;27;20539;-58
2023/08/27 03:56:49;;;;;;;9.27;8.38;;;12.40;99.90;;;;;;5125172;27;20485;-59
2023/08/27 03:59:15;;;;;;;9.50;6.93;;;12.40;99.90;;;;;;5126983;27;20093;-60
2023/08/27 04:01:41;;;;;;;7.30;6.50;;;12.40;99.90;;;;;;5122925;27;20455;-59
2023/08/27 04:04:06;;;;;;;7.80;6.97;;;12.40;99.90;;;;;;5106281;27;20497;-57
2023/08/27 04:06:32;;;;;;;12.10;8.27;;;12.40;99.90;;;;;;5127030;27;20081;-59
2023/08/27 04:08:58;;;;;;;8.15;7.35;;;12.50;99.90;;;;;;5124969;27;20642;-60
2023/08/27 04:11:23;;;;;;;8.73;7.72;;;12.50;99.90;;;;;;5124286;27;20079;-59
2023/08/27 04:13:50;;;;;;;8.80;7.90;;;12.50;99.90;;;;;;5107844;27;20054;-60
2023/08/27 04:16:16;;;;;;;8.35;7.60;;;12.60;99.90;;;;;;5125384;27;20605;-63
2023/08/27 04:18:41;;;;;;;8.82;7.50;;;12.50;99.90;;;;;;5130310;27;20128;-60
2023/08/27 04:21:07;;;;;;;10.45;8.55;;;12.50;99.90;;;;;;5112033;27;20055;-59
2023/08/27 04:23:33;;;;;;;8.18;7.28;;;12.50;99.90;;;;;;5084478;28;20056;-58
2023/08/27 04:25:58;;;;;;;9.32;7.93;;;12.50;99.90;;;;;;5120391;27;20202;-58
2023/08/27 04:28:24;;;;;;;8.20;7.28;;;12.50;99.90;;;;;;5127001;27;20115;-57
2023/08/27 04:30:50;;;;;;;8.88;7.90;;;12.50;99.90;;;;;;5101818;27;20513;-59
2023/08/27 04:33:16;;;;;;;8.35;7.55;;;12.50;99.90;;;;;;5124844;27;20067;-58
2023/08/27 04:35:44;;;;;;;8.60;7.38;;;12.50;99.90;;;;;;5125950;27;20062;-58
2023/08/27 04:38:10;;;;;;;8.23;6.88;;;12.50;99.90;;;;;;5133634;27;20131;-58
2023/08/27 04:40:36;;;;;;;8.88;7.72;;;12.50;99.90;;;;;;5128889;27;20093;-58
2023/08/27 04:43:06;;;;;;;9.82;6.75;;;12.50;99.90;;;;;;5103851;27;20095;-58
2023/08/27 04:45:32;;;;;;;7.75;7.05;;;12.50;99.90;;;;;;5121465;27;21669;-58
2023/08/27 04:47:57;;;;;;;8.00;7.30;;;12.40;99.90;;;;;;5090231;27;20623;-58
2023/08/27 04:50:23;;;;;;;9.43;7.65;;;12.50;99.90;;;;;;5127675;27;20112;-58
2023/08/27 04:52:49;;;;;;;11.95;8.10;;;12.50;99.90;;;;;;5127307;27;20057;-58
2023/08/27 04:55:15;;;;;;;8.27;7.47;;;12.60;99.90;;;;;;5130142;27;20051;-58
2023/08/27 04:57:41;;;;;;;7.88;6.95;;;12.60;99.90;;;;;;5108130;27;20063;-58
2023/08/27 05:00:08;;;;;;;9.02;8.13;;;12.60;99.90;;;;;;5125756;27;20070;-58
2023/08/27 05:02:35;;;;;;;8.27;7.43;;;12.50;99.90;;;;;;5111199;27;20055;-59
2023/08/27 05:05:00;;;;;;;8.35;7.55;;;12.60;99.90;;;;;;5125099;27;20100;-60
2023/08/27 05:07:26;;;;;;;9.88;8.43;;;12.60;99.90;;;;;;5128932;27;20175;-58
2023/08/27 05:09:52;;;;;;;9.02;7.82;;;12.70;99.90;;;;;;5126189;27;20138;-57
2023/08/27 05:12:17;;;;;;;8.52;7.22;;;12.70;99.90;;;;;;5127506;27;20504;-59
2023/08/27 05:14:43;;;;;;;8.52;7.63;;;12.60;99.90;;;;;;5129896;27;20055;-58
2023/08/27 05:17:09;;;;;;;8.70;6.93;;;12.60;99.90;;;;;;5124481;27;20151;-58
2023/08/27 05:19:35;;;;;;;10.63;6.90;;;12.60;99.90;;;;;;5129765;27;20551;-58
2023/08/27 05:22:01;;;;;;;7.80;7.00;;;12.60;99.90;;;;;;5127905;27;20055;-58
2023/08/27 05:24:27;;;;;;;9.23;7.93;;;12.70;99.90;;;;;;5124931;27;20050;-58
2023/08/27 05:26:53;;;;;;;8.15;7.35;;;12.70;99.90;;;;;;5109067;27;20118;-57
2023/08/27 05:29:18;;;;;;;7.80;6.38;;;12.70;99.90;;;;;;5123603;27;20062;-57
2023/08/27 05:31:44;;;;;;;10.90;6.82;;;12.70;99.90;;;;;;5090762;27;1112889;-58
2023/08/27 05:34:10;;;;;;;7.35;6.63;;;12.70;99.90;;;;;;5127788;27;20453;-58
2023/08/27 05:36:36;;;;;;;7.30;6.60;;;12.70;99.90;;;;;;5129311;27;20055;-58
2023/08/27 05:39:06;;;;;;;7.60;6.80;;;12.70;99.90;;;;;;5131128;27;20496;-58
2023/08/27 05:41:32;;;;;;;8.00;7.07;;;12.80;99.90;;;;;;5118664;27;20127;-58
2023/08/27 05:43:58;;;;;;;8.90;7.32;;;12.80;99.90;;;;;;5127822;27;20440;-59
2023/08/27 05:46:24;;;;;;;6.88;6.28;;;12.90;99.90;;;;;;5122100;27;20063;-58
2023/08/27 05:48:50;;;;;;;7.15;6.45;;;13.10;99.90;;;;;;5128128;27;20518;-58
2023/08/27 05:51:15;;;;;;;7.75;6.95;;;13.30;99.90;;;;;;5123290;27;20809;-58
2023/08/27 05:53:42;;;;;;;9.68;7.40;;;13.50;99.90;;;;;;5108897;27;20526;-58
2023/08/27 05:56:08;;;;;;;7.07;6.28;;;13.60;99.90;;;;;;5125850;27;20059;-58
2023/08/27 05:58:34;;;;;;;7.10;6.40;;;13.80;99.90;;;;;;5123608;27;20055;-57
2023/08/27 06:01:01;;;;;;;6.28;5.68;;;14.00;99.90;;;;;;5131614;27;20415;-57
2023/08/27 06:03:26;;;;;;;6.47;5.90;;;14.10;99.90;;;;;;5124204;27;20054;-58
2023/08/27 06:05:52;;;;;;;6.85;6.15;;;14.40;99.90;;;;;;5108830;27;20046;-58
2023/08/27 06:08:18;;;;;;;7.25;6.05;;;14.60;99.90;;;;;;5118272;27;20051;-57
2023/08/27 06:10:44;;;;;;;8.10;5.53;;;14.80;99.90;;;;;;5103832;27;20051;-58
2023/08/27 06:13:10;;;;;;;6.38;5.32;;;15.10;99.90;;;;;;5126717;27;20093;-57
2023/08/27 06:15:37;;;;;;;6.60;5.63;;;15.10;99.90;;;;;;5104604;27;20142;-58
2023/08/27 06:20:33;;;;;;;5.22;4.45;;;15.00;99.90;;;;;;5126556;27;21205;-57
2023/08/27 06:22:59;;;;;;;7.88;4.97;;;14.90;99.90;;;;;;5127074;27;20530;-57
2023/08/27 06:25:25;;;;;;;5.68;5.07;;;14.90;99.90;;;;;;5128135;27;20074;-57
2023/08/27 06:27:55;;;;;;;4.57;4.18;;;14.90;99.90;;;;;;5100938;27;20059;-57
2023/08/27 06:30:20;;;;;;;5.90;5.07;;;15.00;99.90;;;;;;5124567;27;20059;-58
2023/08/27 06:32:46;;;;;;;7.75;5.10;;;15.10;99.90;;;;;;5118105;27;20105;-58
2023/08/27 06:35:12;;;;;;;5.85;5.22;;;15.00;99.90;;;;;;5125354;27;20062;-57
2023/08/27 06:37:37;;;;;;;5.72;5.07;;;15.00;99.90;;;;;;5126383;27;20086;-57
2023/08/27 06:40:07;;;;;;;5.15;4.70;;;15.00;99.90;;;;;;5118869;27;20067;-58
2023/08/27 06:42:33;;;;;;;6.97;4.70;;;14.90;99.90;;;;;;5129083;27;20061;-57
2023/08/27 06:45:00;;;;;;;5.47;4.72;;;14.80;99.90;;;;;;5123686;27;20464;-58
2023/08/27 06:47:26;;;;;;;5.80;4.80;;;14.80;99.90;;;;;;5109160;27;20576;-57
2023/08/27 06:49:51;;;;;;;5.05;4.20;;;14.80;99.90;;;;;;5127895;27;20055;-57
2023/08/27 06:52:20;;;;;;;5.78;4.75;;;14.80;99.90;;;;;;5120137;27;20065;-57
2023/08/27 06:54:46;;;;;;;4.70;4.30;;;14.70;99.90;;;;;;5129333;27;20065;-58
2023/08/27 06:57:11;;;;;;;7.20;4.65;;;14.70;99.90;;;;;;5123866;27;20146;-57
2023/08/27 06:59:37;;;;;;;5.03;4.35;;;14.60;99.90;;;;;;5128667;27;20107;-56
2023/08/27 07:02:06;;;;;;;5.05;4.05;;;14.50;99.90;;;;;;5105397;27;20051;-57
2023/08/27 07:04:32;;;;;;;6.05;4.90;;;14.50;99.90;;;;;;5114755;27;20110;-57
2023/08/27 07:06:58;;;;;;;5.93;3.72;;;14.50;99.90;;;;;;5125989;27;20128;-57
2023/08/27 07:09:25;;;;;;;5.53;4.10;;;14.50;99.90;;;;;;5099911;27;20754;-58
2023/08/27 07:11:52;;;;;;;6.53;4.53;;;14.60;99.90;;;;;;5130185;27;20062;-57
2023/08/27 07:14:17;;;;;;;4.82;4.32;;;14.60;99.90;;;;;;5122601;27;20062;-57
2023/08/27 07:16:43;;;;;;;4.13;3.72;;;14.70;99.90;;;;;;5125693;27;20046;-57
2023/08/27 07:19:09;;;;;;;6.57;4.57;;;14.70;99.90;;;;;;5104413;27;20563;-57
2023/08/27 07:21:34;;;;;;;4.60;3.80;;;14.80;99.90;;;;;;5113297;27;20807;-58
2023/08/27 07:24:00;;;;;;;4.38;4.07;;;14.70;99.90;;;;;;5104802;28;20051;-58
2023/08/27 07:26:26;;;;;;;4.78;4.00;;;15.50;99.90;;;;;;5117259;27;20051;-58
2023/08/27 07:28:52;;;;;;;5.10;3.58;;;15.00;99.90;;;;;;5106373;27;20047;-64
2023/08/27 07:31:17;;;;;;;6.53;3.08;;;14.90;99.90;;;;;;5116032;27;20059;-64
2023/08/27 07:33:43;;;;;;;5.28;3.17;;;14.90;99.90;;;;;;5118563;27;20052;-66
2023/08/27 07:36:09;;;;;;;4.60;2.97;;;14.90;99.90;;;;;;5128656;27;20560;-62
2023/08/27 07:38:40;;;;;;;4.18;3.78;;;14.90;99.90;;;;;;5114942;27;20178;-64
2023/08/27 07:41:08;;;;;;;5.72;3.55;;;15.00;99.90;;;;;;5129019;27;20047;-59
2023/08/27 07:43:34;;;;;;;4.03;2.90;;;15.00;99.90;;;;;;5127707;27;20091;-58
2023/08/27 07:45:59;;;;;;;5.03;2.90;;;14.90;99.90;;;;;;5131184;27;20059;-58
2023/08/27 07:48:27;;;;;;;3.35;2.70;;;15.10;99.90;;;;;;5113397;27;20066;-58
2023/08/27 07:50:52;;;;;;;4.43;3.17;;;15.10;99.90;;;;;;5103532;28;20051;-58
2023/08/27 07:53:18;;;;;;;2.72;2.35;;;15.10;99.90;;;;;;5120486;27;20385;-58
2023/08/27 07:55:44;;;;;;;2.92;2.63;;;15.20;99.90;;;;;;5135673;27;20111;-58
2023/08/27 07:58:10;;;;;;;2.88;2.47;;;15.30;99.90;;;;;;5110785;27;20128;-58
2023/08/27 08:00:35;;;;;;;2.60;2.28;;;15.60;99.90;;;;;;5137159;27;20059;-58
2023/08/27 08:03:02;;;;;;;2.78;2.20;;;15.80;99.90;;;;;;5106746;27;20149;-58
2023/08/27 08:05:35;;;;;;;7.45;3.28;;;16.00;99.90;;;;;;5115788;27;20556;-58
2023/08/27 08:08:00;;;;;;;3.92;2.78;;;16.30;99.90;;;;;;5134098;27;20130;-58
2023/08/27 08:10:26;;;;;;;3.45;2.38;;;16.50;99.90;;;;;;5131141;27;20084;-58
2023/08/27 08:12:52;;;;;;;2.10;1.98;;;16.30;99.90;;;;;;5125440;27;20058;-58
2023/08/27 08:15:19;;;;;;;2.17;1.98;;;16.40;99.90;;;;;;5124984;27;20066;-58
2023/08/27 08:17:45;;;;;;;2.20;1.98;;;16.90;99.90;;;;;;5127751;27;20047;-58
2023/08/27 08:20:14;;;;;;;3.97;2.20;;;17.40;99.90;;;;;;5126957;27;20059;-56
2023/08/27 08:22:40;;;;;;;4.25;1.75;;;17.50;99.90;;;;;;5129777;27;20058;-58
2023/08/27 08:25:07;;;;;;;4.38;2.17;;;18.00;99.90;;;;;;5133273;27;20129;-58
2023/08/27 08:27:33;;;;;;;1.63;1.40;;;18.50;99.90;;;;;;5112334;27;20062;-58
2023/08/27 08:30:01;;;;;;;2.00;1.52;;;18.70;99.90;;;;;;5082755;28;20489;-58
2023/08/27 08:32:26;;;;;;;1.40;1.30;;;19.40;99.90;;;;;;5110505;27;22544;-58
2023/08/27 08:34:54;;;;;;;1.30;1.20;;;19.70;99.90;;;;;;5128506;27;20128;-58
2023/08/27 08:37:20;;;;;;;1.40;1.27;;;20.00;99.90;;;;;;5119061;27;20074;-58
2023/08/27 08:39:45;;;;;;;1.65;1.15;;;20.20;99.90;;;;;;5134703;27;20138;-59
2023/08/27 08:42:31;;;;;;;1.17;0.80;;;20.10;99.90;;;;;;5120631;27;20074;-58
2023/08/27 08:47:35;;;;;;;1.45;1.08;;;20.80;99.90;;;;;;5125241;27;20083;-58
2023/08/27 08:52:39;;;;;;;1.05;0.93;;;21.40;99.90;;;;;;5111386;27;20158;-58
2023/08/27 08:55:10;;;;;;;2.42;1.30;;;21.80;99.90;;;;;;5112111;27;20090;-58
2023/08/27 08:57:51;;;;;;;1.13;0.88;;;22.20;99.90;;;;;;5123038;27;20515;-58
2023/08/27 09:00:18;;;;;;;1.20;1.05;;;22.20;99.90;;;;;;5120869;27;20101;-58
2023/08/27 09:02:46;;;;;;;2.03;1.15;;;22.60;99.90;;;;;;5114485;27;20061;-58
2023/08/27 09:05:12;;;;;;;2.00;0.73;;;22.90;99.90;;;;;;5127931;27;20065;-57
2023/08/27 09:07:39;;;;;;;3.42;1.00;;;23.00;99.90;;;;;;5118196;27;20578;-59
2023/08/27 09:10:10;;;;;;;2.00;0.98;;;23.20;99.90;;;;;;5124037;27;20056;-57
2023/08/27 09:12:40;;;;;;;1.38;1.08;;;23.80;99.90;;;;;;5125768;27;20798;-59
2023/08/27 09:15:10;;;;;;;2.28;1.10;;;23.50;99.90;;;;;;5128210;27;20218;-59
2023/08/27 09:17:37;;;;;;;2.92;1.08;;;23.50;99.90;;;;;;5122513;27;20410;-58
2023/08/27 09:22:35;;;;;;;2.30;1.35;;;24.10;99.90;;;;;;5125483;27;20089;-58
2023/08/27 09:25:01;;;;;;;2.78;1.52;;;24.10;99.90;;;;;;5131963;27;20066;-59
2023/08/27 09:27:28;;;;;;;1.83;1.05;;;23.90;99.90;;;;;;5127964;27;20047;-58
2023/08/27 09:29:57;;;;;;;2.92;1.15;;;24.20;99.90;;;;;;5125785;27;20061;-59
2023/08/27 09:32:23;;;;;;;2.42;1.10;;;23.70;99.90;;;;;;5125692;27;20055;-59
2023/08/27 09:34:57;;;;;;;2.63;1.30;;;23.40;99.90;;;;;;5126360;27;20683;-58
2023/08/27 09:37:22;;;;;;;2.03;1.10;;;23.40;99.90;;;;;;5123416;27;20055;-59
2023/08/27 09:39:49;;;;;;;2.50;0.98;;;22.90;99.90;;;;;;5119947;27;20062;-59
2023/08/27 09:42:16;;;;;;;2.65;1.33;;;22.70;99.90;;;;;;5117981;27;20134;-58
2023/08/27 09:44:49;;;;;;;0.98;0.88;;;22.00;99.90;;;;;;5129810;27;20141;-59
2023/08/27 09:47:15;;;;;;;1.58;1.23;;;22.60;99.90;;;;;;5124264;27;20051;-58
2023/08/27 09:49:42;;;;;;;1.17;0.80;;;22.40;99.90;;;;;;5088080;27;1109396;-59
2023/08/27 09:52:08;;;;;;;2.67;1.25;;;23.20;99.90;;;;;;5126086;27;20068;-58
2023/08/27 09:54:34;;;;;;;1.17;0.80;;;22.80;99.90;;;;;;5123798;27;20896;-58
2023/08/27 09:57:00;;;;;;;3.35;1.30;;;23.10;99.90;;;;;;5124407;27;20065;-58
2023/08/27 09:59:26;;;;;;;1.98;0.82;;;22.80;99.90;;;;;;5124222;27;20074;-58
2023/08/27 10:01:53;;;;;;;1.52;0.90;;;22.90;99.90;;;;;;5128301;27;20110;-58
2023/08/27 10:04:20;;;;;;;1.20;1.10;;;22.80;99.90;;;;;;5115654;27;20055;-59
2023/08/27 10:06:46;;;;;;;2.08;0.47;;;23.30;99.90;;;;;;5118925;27;20074;-58
2023/08/27 10:09:14;;;;;;;2.80;1.20;;;23.50;99.90;;;;;;5100907;27;20403;-58
2023/08/27 10:11:44;;;;;;;1.55;1.17;;;23.90;99.90;;;;;;5122658;27;20062;-58
2023/08/27 10:14:10;;;;;;;1.75;1.35;;;24.40;99.90;;;;;;5123581;27;20047;-58
2023/08/27 10:16:37;;;;;;;1.48;1.13;;;23.80;99.90;;;;;;5121818;27;20151;-58
2023/08/27 10:19:07;;;;;;;1.33;1.10;;;24.30;99.90;;;;;;5126895;27;20059;-59
2023/08/27 10:21:33;;;;;;;0.73;0.63;;;24.40;99.90;;;;;;5126619;27;20059;-58
2023/08/27 10:24:00;;;;;;;1.15;0.70;;;24.90;99.90;;;;;;5111814;27;20059;-59
2023/08/27 10:26:28;;;;;;;0.57;0.55;;;24.40;99.90;;;;;;5121365;27;20332;-58
2023/08/27 10:28:54;;;;;;;0.93;0.70;;;24.70;99.90;;;;;;5122091;27;21250;-58
2023/08/27 10:31:20;;;;;;;2.15;1.13;;;24.70;99.90;;;;;;5123367;27;20051;-65
2023/08/27 10:33:46;;;;;;;1.52;0.80;;;24.70;99.90;;;;;;5118298;27;20074;-63
2023/08/27 10:36:34;;;;;;;1.05;0.57;;;24.80;99.90;;;;;;5121436;27;20047;-63
2023/08/27 10:39:07;;;;;;;1.33;1.10;;;24.70;99.90;;;;;;5134562;27;20063;-59
2023/08/27 10:41:36;;;;;;;1.17;1.08;;;24.70;99.90;;;;;;5127373;27;20092;-61
2023/08/27 10:46:28;;;;;;;1.00;0.80;;;25.00;99.90;;;;;;5105058;27;20051;-58
2023/08/27 10:48:54;;;;;;;1.00;0.60;;;24.90;99.90;;;;;;5131179;27;20051;-58
2023/08/27 10:51:27;;;;;;;1.13;0.95;;;25.60;99.90;;;;;;5126760;27;20053;-58
2023/08/27 10:53:57;;;;;;;1.38;1.10;;;24.50;99.90;;;;;;5108412;27;20108;-59
2023/08/27 10:56:31;;;;;;;1.95;1.00;;;25.00;99.90;;;;;;5112232;27;20550;-57
2023/08/27 10:58:58;;;;;;;1.60;0.95;;;24.80;99.90;;;;;;5106131;27;20059;-59
2023/08/27 11:01:24;;;;;;;1.00;0.52;;;24.70;99.90;;;;;;5126788;27;20088;-59
2023/08/27 11:03:56;;;;;;;1.08;0.98;;;24.90;99.90;;;;;;5131751;27;20055;-59
2023/08/27 11:06:46;;;;;;;1.95;0.90;;;24.80;99.90;;;;;;5113703;27;20098;-59
2023/08/27 11:09:25;;;;;;;2.30;1.38;;;25.30;99.90;;;;;;5127140;27;20050;-59
2023/08/27 11:11:59;;;;;;;1.38;0.95;;;24.80;99.90;;;;;;5100753;27;20055;-59
2023/08/27 11:14:28;;;;;;;6.03;1.15;;;24.00;99.90;;;;;;5080663;28;20066;-59
2023/08/27 11:16:57;;;;;;;1.63;1.50;;;23.90;99.90;;;;;;5103913;27;20146;-59
2023/08/27 11:19:35;;;;;;;3.13;0.90;;;23.40;99.90;;;;;;5109038;27;20054;-58
2023/08/27 11:24:28;;;;;;;1.48;0.88;;;23.00;99.90;;;;;;5113473;27;20066;-58
2023/08/27 11:26:54;;;;;;;3.25;1.20;;;22.80;99.90;;;;;;5102099;27;20047;-59
2023/08/27 11:29:23;;;;;;;1.23;0.90;;;22.90;99.90;;;;;;5109407;27;20063;-59
2023/08/27 11:31:49;;;;;;;0.98;0.95;;;23.00;99.90;;;;;;5117917;27;20061;-59
2023/08/27 11:34:15;;;;;;;1.60;1.02;;;22.60;99.90;;;;;;5128035;27;20058;-58
2023/08/27 11:36:45;;;;;;;2.60;1.27;;;22.40;99.90;;;;;;5115755;27;20496;-58
2023/08/27 11:39:15;;;;;;;2.72;1.30;;;21.90;99.90;;;;;;5105558;27;20047;-58
2023/08/27 11:41:46;;;;;;;1.73;1.30;;;21.80;99.90;;;;;;5125905;27;20114;-58
2023/08/27 11:44:13;;;;;;;2.88;1.25;;;21.70;99.90;;;;;;5120790;27;20496;-58
2023/08/27 11:46:41;;;;;;;3.92;1.48;;;21.50;99.90;;;;;;5108286;28;20083;-58
2023/08/27 11:49:08;;;;;;;2.40;1.50;;;21.60;99.90;;;;;;5110977;27;20078;-58
2023/08/27 11:51:34;;;;;;;1.77;1.50;;;21.70;99.90;;;;;;5127095;27;20108;-58
2023/08/27 11:54:07;;;;;;;2.55;1.45;;;21.50;99.90;;;;;;5123623;27;20107;-59
2023/08/27 11:56:35;;;;;;;4.50;1.65;;;24.40;99.90;;;;;;5098132;28;20078;-58
2023/08/27 11:59:03;;;;;;;2.45;1.98;;;27.40;99.90;;;;;;5104508;28;20059;-59
2023/08/27 12:01:33;;;;;;;3.70;1.27;;;27.50;99.90;;;;;;5118167;27;20050;-59
2023/08/27 12:03:59;;;;;;;1.30;1.08;;;26.90;99.90;;;;;;5119750;27;20069;-60
2023/08/27 12:06:26;;;;;;;1.25;0.85;;;26.10;99.90;;;;;;5114487;27;20474;-59
2023/08/27 12:08:56;;;;;;;0.80;0.80;;;25.10;99.90;;;;;;5113867;27;20062;-59
2023/08/27 12:11:27;;;;;;;1.00;0.85;;;24.20;99.90;;;;;;5121132;27;20082;-58
2023/08/27 12:14:02;;;;;;;1.70;0.68;;;23.50;99.90;;;;;;5118979;27;20047;-58
2023/08/27 12:16:32;;;;;;;1.23;0.70;;;22.50;99.90;;;;;;5128591;27;20063;-59
2023/08/27 12:19:06;;;;;;;1.30;0.82;;;22.50;99.90;;;;;;5128485;27;20054;-58
2023/08/27 12:21:52;;;;;;;2.10;0.85;;;22.10;99.90;;;;;;5124768;27;20059;-58
2023/08/27 12:24:34;;;;;;;0.60;0.55;;;21.70;99.90;;;;;;5115164;27;20046;-58
2023/08/27 12:27:06;;;;;;;2.88;0.98;;;21.00;99.90;;;;;;5111240;27;20563;-58
2023/08/27 12:29:52;;;;;;;1.55;1.20;;;20.90;99.90;;;;;;5091507;27;20106;-58
2023/08/27 12:32:21;;;;;;;2.35;1.13;;;20.40;99.90;;;;;;5125955;27;20115;-59
2023/08/27 12:34:49;;;;;;;3.13;1.15;;;20.00;99.90;;;;;;5100358;28;20487;-60
2023/08/27 12:37:17;;;;;;;0.95;0.95;;;19.90;99.90;;;;;;5100802;28;20117;-60
2023/08/27 12:39:44;;;;;;;2.05;1.08;;;19.30;99.90;;;;;;5108885;27;20138;-59
2023/08/27 12:42:11;;;;;;;3.13;1.88;;;18.90;99.90;;;;;;5122362;27;20055;-60
2023/08/27 12:44:38;;;;;;;2.05;1.10;;;18.40;99.90;;;;;;5118439;27;20061;-60
2023/08/27 12:47:08;;;;;;;2.08;1.13;;;17.70;99.90;;;;;;5132799;27;20538;-58
2023/08/27 12:49:35;;;;;;;1.63;0.75;;;17.50;99.90;;;;;;5107069;27;20063;-59
2023/08/27 12:52:01;;;;;;;1.13;0.80;;;17.30;99.90;;;;;;5127656;27;20073;-58
2023/08/27 12:54:27;;;;;;;1.27;0.88;;;17.30;99.90;;;;;;5107403;27;20519;-59
2023/08/27 12:56:53;;;;;;;1.20;0.80;;;17.40;99.90;;;;;;5131748;27;20058;-59
2023/08/27 12:59:20;;;;;;;1.92;0.75;;;17.50;99.90;;;;;;5131747;27;20082;-58
2023/08/27 13:01:46;;;;;;;0.80;0.80;;;17.90;99.90;;;;;;5122339;27;20059;-59
2023/08/27 13:04:13;;;;;;;1.52;0.90;;;18.70;99.90;;;;;;5110252;27;20488;-58
2023/08/27 13:06:39;;;;;;;7.07;1.00;;;20.20;99.90;;;;;;5126643;27;20066;-59